Time;durP1;ratioP1;P1;durP2;ratioP2;P2;SDS_P1;SDS_P2;PMS_P1;PMS_P2;Temp;Humidity;BMP_temperature;BMP_pressure;BME280_temperature;BME280_humidity;BME280_pressure;Samples;Min_cycle;Max_cycle;Signal;HPM_P1;HPM_P2
2021/11/07 00:00:56;;;;;;;7.9;4.2;;;;;;;;;;;;;
2021/11/07 00:03:21;;;;;;;7.8;4.1;;;;;;;;;;;;;
2021/11/07 00:05:42;;;;;;;7.7;4.6;;;;;;;;;;;;;
2021/11/07 00:08:18;;;;;;;10.2;5.2;;;;;;;;;;;;;
2021/11/07 00:10:37;;;;;;;9.9;4.7;;;;;;;;;;;;;
2021/11/07 00:13:04;;;;;;;8.7;4.6;;;;;;;;;;;;;
2021/11/07 00:15:21;;;;;;;6.6;4;;;;;;;;;;;;;
2021/11/07 00:17:50;;;;;;;6.9;4.1;;;;;;;;;;;;;
2021/11/07 00:20:16;;;;;;;7.8;3.8;;;;;;;;;;;;;
2021/11/07 00:22:45;;;;;;;8.4;4.9;;;;;;;;;;;;;
2021/11/07 00:25:05;;;;;;;7.4;4.5;;;;;;;;;;;;;
2021/11/07 00:27:29;;;;;;;7.4;4.3;;;;;;;;;;;;;
2021/11/07 00:30:15;;;;;;;8;4;;;;;;;;;;;;;
2021/11/07 00:32:31;;;;;;;7.4;4.1;;;;;;;;;;;;;
2021/11/07 00:35:31;;;;;;;5.9;3.7;;;;;;;;;;;;;
2021/11/07 00:37:08;;;;;;;6.5;3.9;;;;;;;;;;;;;
2021/11/07 00:39:39;;;;;;;7.9;4.2;;;;;;;;;;;;;
2021/11/07 00:42:04;;;;;;;9.1;4;;;;;;;;;;;;;
2021/11/07 00:44:29;;;;;;;7.4;4.2;;;;;;;;;;;;;
2021/11/07 00:46:49;;;;;;;5.3;3.1;;;;;;;;;;;;;
2021/11/07 00:49:16;;;;;;;5.8;2.9;;;;;;;;;;;;;
2021/11/07 00:51:44;;;;;;;7.1;3.4;;;;;;;;;;;;;
2021/11/07 00:54:15;;;;;;;4.4;2.4;;;;;;;;;;;;;
2021/11/07 00:56:36;;;;;;;4.2;2.5;;;;;;;;;;;;;
2021/11/07 00:59:05;;;;;;;3.7;2.4;;;;;;;;;;;;;
2021/11/07 01:01:19;;;;;;;4.4;2.8;;;;;;;;;;;;;
2021/11/07 01:03:43;;;;;;;4.3;2.4;;;;;;;;;;;;;
2021/11/07 01:06:08;;;;;;;2.9;2.4;;;;;;;;;;;;;
2021/11/07 01:08:33;;;;;;;3.2;2;;;;;;;;;;;;;
2021/11/07 01:11:00;;;;;;;4.1;2.1;;;;;;;;;;;;;
2021/11/07 01:13:23;;;;;;;2.7;1.8;;;;;;;;;;;;;
2021/11/07 01:15:49;;;;;;;3;2.4;;;;;;;;;;;;;
2021/11/07 01:18:14;;;;;;;3.5;2.2;;;;;;;;;;;;;
2021/11/07 01:20:40;;;;;;;3.1;2.1;;;;;;;;;;;;;
2021/11/07 01:23:12;;;;;;;6.2;2.3;;;;;;;;;;;;;
2021/11/07 01:27:57;;;;;;;8.1;3.3;;;;;;;;;;;;;
2021/11/07 01:30:23;;;;;;;6.4;4;;;;;;;;;;;;;
2021/11/07 01:32:49;;;;;;;6.4;3.6;;;;;;;;;;;;;
2021/11/07 01:35:16;;;;;;;6.4;3.4;;;;;;;;;;;;;
2021/11/07 01:37:41;;;;;;;7;3.4;;;;;;;;;;;;;
2021/11/07 01:40:08;;;;;;;6.5;3.9;;;;;;;;;;;;;
2021/11/07 01:42:33;;;;;;;6.2;3.6;;;;;;;;;;;;;
2021/11/07 01:44:55;;;;;;;6.7;3.6;;;;;;;;;;;;;
2021/11/07 01:47:17;;;;;;;7.9;3.6;;;;;;;;;;;;;
2021/11/07 01:49:43;;;;;;;5.5;3;;;;;;;;;;;;;
2021/11/07 01:52:09;;;;;;;6.6;3.6;;;;;;;;;;;;;
2021/11/07 01:54:36;;;;;;;7.1;3.9;;;;;;;;;;;;;
2021/11/07 01:56:58;;;;;;;6.1;3.8;;;;;;;;;;;;;
2021/11/07 01:59:23;;;;;;;8.1;3.9;;;;;;;;;;;;;
2021/11/07 02:01:48;;;;;;;6.3;3.8;;;;;;;;;;;;;
2021/11/07 02:04:13;;;;;;;10.1;3.7;;;;;;;;;;;;;
2021/11/07 02:06:38;;;;;;;5.2;3.3;;;;;;;;;;;;;
2021/11/07 02:09:04;;;;;;;4.8;3.1;;;;;;;;;;;;;
2021/11/07 02:11:29;;;;;;;4.5;2.9;;;;;;;;;;;;;
2021/11/07 02:13:54;;;;;;;6.2;3.3;;;;;;;;;;;;;
2021/11/07 02:16:21;;;;;;;5.5;2.6;;;;;;;;;;;;;
2021/11/07 02:18:45;;;;;;;4.5;2.9;;;;;;;;;;;;;
2021/11/07 02:21:11;;;;;;;6;3.1;;;;;;;;;;;;;
2021/11/07 02:23:36;;;;;;;3.9;2.2;;;;;;;;;;;;;
2021/11/07 02:26:05;;;;;;;3.7;2;;;;;;;;;;;;;
2021/11/07 02:28:27;;;;;;;4.4;2.1;;;;;;;;;;;;;
2021/11/07 02:30:53;;;;;;;4.8;2.3;;;;;;;;;;;;;
2021/11/07 02:33:18;;;;;;;3.6;2.4;;;;;;;;;;;;;
2021/11/07 02:35:43;;;;;;;2.8;1.9;;;;;;;;;;;;;
2021/11/07 02:38:08;;;;;;;3.2;2.2;;;;;;;;;;;;;
2021/11/07 02:40:33;;;;;;;3.1;2.1;;;;;;;;;;;;;
2021/11/07 02:42:58;;;;;;;3.5;2.2;;;;;;;;;;;;;
2021/11/07 02:45:23;;;;;;;2.8;1.8;;;;;;;;;;;;;
2021/11/07 02:47:50;;;;;;;3;2.1;;;;;;;;;;;;;
2021/11/07 02:50:15;;;;;;;2.8;1.7;;;;;;;;;;;;;
2021/11/07 02:52:40;;;;;;;3.8;1.5;;;;;;;;;;;;;
2021/11/07 02:55:05;;;;;;;3.7;2;;;;;;;;;;;;;
2021/11/07 02:57:30;;;;;;;2.7;1.7;;;;;;;;;;;;;
2021/11/07 02:59:58;;;;;;;2.9;1.7;;;;;;;;;;;;;
2021/11/07 03:02:21;;;;;;;3.5;2.1;;;;;;;;;;;;;
2021/11/07 03:05:11;;;;;;;7.9;2.7;;;;;;;;;;;;;
2021/11/07 03:07:36;;;;;;;4.6;2.6;;;;;;;;;;;;;
2021/11/07 03:10:01;;;;;;;3.6;2.3;;;;;;;;;;;;;
2021/11/07 03:12:27;;;;;;;4.9;2.2;;;;;;;;;;;;;
2021/11/07 03:14:52;;;;;;;3.3;1.9;;;;;;;;;;;;;
2021/11/07 03:17:17;;;;;;;4;1.8;;;;;;;;;;;;;
2021/11/07 03:19:42;;;;;;;2.6;1.8;;;;;;;;;;;;;
2021/11/07 03:22:07;;;;;;;3.3;2.5;;;;;;;;;;;;;
2021/11/07 03:24:32;;;;;;;3.5;2.3;;;;;;;;;;;;;
2021/11/07 03:26:58;;;;;;;3;2.1;;;;;;;;;;;;;
2021/11/07 03:32:07;;;;;;;2.6;1.5;;;;;;;;;;;;;
2021/11/07 03:34:29;;;;;;;2.1;1.5;;;;;;;;;;;;;
2021/11/07 03:36:54;;;;;;;2.3;1.5;;;;;;;;;;;;;
2021/11/07 03:39:18;;;;;;;2.6;1.7;;;;;;;;;;;;;
2021/11/07 03:41:43;;;;;;;3;1.9;;;;;;;;;;;;;
2021/11/07 03:44:08;;;;;;;3;1.8;;;;;;;;;;;;;
2021/11/07 03:46:33;;;;;;;2;1.5;;;;;;;;;;;;;
2021/11/07 03:48:58;;;;;;;3.7;2;;;;;;;;;;;;;
2021/11/07 03:51:24;;;;;;;2.5;1.6;;;;;;;;;;;;;
2021/11/07 03:53:48;;;;;;;2.4;1.8;;;;;;;;;;;;;
2021/11/07 03:56:14;;;;;;;2.1;1.5;;;;;;;;;;;;;
2021/11/07 03:58:40;;;;;;;1.9;1.6;;;;;;;;;;;;;
2021/11/07 04:02:31;;;;;;;2.4;1.7;;;;;;;-1.37;87.70508;943.4048;;;;
2021/11/07 04:04:56;;;;;;;3.3;2;;;;;;;-1.36;87.96289;943.4039;;;;
2021/11/07 04:07:22;;;;;;;9.2;2.3;;;;;;;-1.24;87.92188;943.4138;;;;
2021/11/07 04:09:47;;;;;;;3.1;2;;;;;;;-1.1;87.19336;943.4615;;;;
2021/11/07 04:12:14;;;;;;;2.6;1.7;;;;;;;-1.22;86.94824;943.4401;;;;
2021/11/07 04:14:39;;;;;;;5.5;2;;;;;;;-1.22;87.08008;943.3883;;;;
2021/11/07 04:17:04;;;;;;;3.2;1.9;;;;;;;-1.16;86.84863;943.4126;;;;
2021/11/07 04:19:29;;;;;;;3.7;2.2;;;;;;;-1.16;86.85938;943.2776;;;;
2021/11/07 04:21:58;;;;;;;3.8;2;;;;;;;-1.24;87.11133;943.1936;;;;
2021/11/07 04:24:20;;;;;;;3.9;2;;;;;;;-1.18;87.32031;943.137;;;;
2021/11/07 04:26:45;;;;;;;5;2.4;;;;;;;-1.27;87.32813;943.1286;;;;
2021/11/07 04:29:11;;;;;;;3.3;1.9;;;;;;;-1.3;87.42969;943.0701;;;;
2021/11/07 04:34:01;;;;;;;3;1.8;;;;;;;-1;86.49121;943.1705;;;;
2021/11/07 04:36:28;;;;;;;2.9;2;;;;;;;-1.03;86.35254;943.2546;;;;
2021/11/07 04:38:53;;;;;;;2.7;1.7;;;;;;;-1.14;86.59668;943.2059;;;;
2021/11/07 04:41:21;;;;;;;3.2;2.3;;;;;;;-0.96;86.26758;943.2633;;;;
2021/11/07 04:43:46;;;;;;;2.6;1.7;;;;;;;-0.78;85.19238;943.2253;;;;
2021/11/07 04:46:14;;;;;;;3;1.7;;;;;;;-0.87;84.34082;943.2444;;;;
2021/11/07 04:48:35;;;;;;;2.1;1.4;;;;;;;-0.97;85.98926;943.3958;;;;
2021/11/07 04:51:01;;;;;;;1.5;1;;;;;;;-1;85.96875;943.287;;;;
2021/11/07 04:53:26;;;;;;;2.2;1.1;;;;;;;-0.96;85.32227;943.3639;;;;
2021/11/07 04:55:51;;;;;;;2.1;1.4;;;;;;;-0.85;84.71094;943.3481;;;;
2021/11/07 04:58:16;;;;;;;2.1;1;;;;;;;-0.76;84.24023;943.2441;;;;
2021/11/07 05:00:41;;;;;;;1.8;1.3;;;;;;;-0.64;83.38672;943.2266;;;;
2021/11/07 05:03:07;;;;;;;3;1.5;;;;;;;-0.68;83.50195;943.149;;;;
2021/11/07 05:05:32;;;;;;;1.2;1.1;;;;;;;-0.48;82.98242;943.1716;;;;
2021/11/07 05:07:57;;;;;;;1.7;1.4;;;;;;;-0.78;82.5459;943.1047;;;;
2021/11/07 05:10:22;;;;;;;2.3;1.1;;;;;;;-0.89;83.11426;943.0402;;;;
2021/11/07 05:12:47;;;;;;;3.5;1.6;;;;;;;-0.94;84.33691;943.0666;;;;
2021/11/07 05:15:12;;;;;;;2.5;1.9;;;;;;;-0.92;83.96289;943.1594;;;;
2021/11/07 05:17:38;;;;;;;2.4;1.5;;;;;;;-1.02;84.2207;943.1333;;;;
2021/11/07 05:20:03;;;;;;;2.5;1.5;;;;;;;-1.15;84.6416;943.1166;;;;
2021/11/07 05:22:30;;;;;;;2.1;1.7;;;;;;;-1.12;84.81152;943.1531;;;;
2021/11/07 05:24:56;;;;;;;1.5;1.2;;;;;;;-1.08;84.86523;943.2137;;;;
2021/11/07 05:27:22;;;;;;;2.3;1.2;;;;;;;-1.08;85.04297;943.1584;;;;
2021/11/07 05:29:47;;;;;;;2;1.4;;;;;;;-1.11;84.71582;943.1781;;;;
2021/11/07 05:32:12;;;;;;;1.8;1.2;;;;;;;-1.28;84.83496;943.183;;;;
2021/11/07 05:34:41;;;;;;;1.9;1.5;;;;;;;-1.48;85.73828;943.1486;;;;
2021/11/07 05:37:02;;;;;;;2.4;1.6;;;;;;;-1.51;86.03223;943.1883;;;;
2021/11/07 05:39:27;;;;;;;1.8;1.6;;;;;;;-1.67;86.58887;943.1289;;;;
2021/11/07 05:41:55;;;;;;;2.3;1.4;;;;;;;-1.77;87.41016;943.1594;;;;
2021/11/07 05:44:20;;;;;;;4.8;2.2;;;;;;;-1.81;87.97852;943.1424;;;;
2021/11/07 05:46:46;;;;;;;3.2;1.6;;;;;;;-1.76;87.65723;943.0522;;;;
2021/11/07 05:49:11;;;;;;;2.1;1.6;;;;;;;-1.65;87.16992;943.0217;;;;
2021/11/07 05:51:38;;;;;;;3.1;1.8;;;;;;;-1.64;86.79395;943.0339;;;;
2021/11/07 05:54:03;;;;;;;3;1.6;;;;;;;-1.58;86.06348;942.9562;;;;
2021/11/07 05:56:29;;;;;;;4.7;2.4;;;;;;;-1.56;85.88965;942.9512;;;;
2021/11/07 05:58:54;;;;;;;4;2.1;;;;;;;-1.47;85.72852;943.0234;;;;
2021/11/07 06:01:21;;;;;;;4.4;2.3;;;;;;;-1.46;85.41992;943.0505;;;;
2021/11/07 06:06:17;;;;;;;3.5;1.5;;;;;;;-1.34;85.38965;943.092;;;;
2021/11/07 06:08:42;;;;;;;2.8;1.5;;;;;;;-1.28;84.54785;943.1114;;;;
2021/11/07 06:11:07;;;;;;;2.2;1.5;;;;;;;-1.32;84.81641;943.1945;;;;
2021/11/07 06:13:32;;;;;;;2.6;1.6;;;;;;;-1.4;84.85547;943.2726;;;;
2021/11/07 06:15:59;;;;;;;2.5;1.5;;;;;;;-1.44;84.60352;943.3279;;;;
2021/11/07 06:18:23;;;;;;;3.6;2.2;;;;;;;-1.54;85.02832;943.3057;;;;
2021/11/07 06:20:49;;;;;;;7.3;3.8;;;;;;;-1.55;85.42578;943.3029;;;;
2021/11/07 06:23:13;;;;;;;7.7;4.3;;;;;;;-1.55;85.74902;943.3002;;;;
2021/11/07 06:25:40;;;;;;;10.1;5.2;;;;;;;-1.41;85.41992;943.2483;;;;
2021/11/07 06:28:05;;;;;;;14.3;7.3;;;;;;;-1.23;84.52344;943.2626;;;;
2021/11/07 06:30:30;;;;;;;16.4;7.8;;;;;;;-1.03;83.60742;943.2531;;;;
2021/11/07 06:33:53;;;;;;;16.4;7.7;;;;;;;-1.1;83.7041;943.1903;;;;
2021/11/07 06:36:21;;;;;;;11.1;5.2;;;;;;;-1.38;84.7041;943.2927;;;;
2021/11/07 06:38:46;;;;;;;10.2;5.4;;;;;;;-1.3;84.35547;943.3205;;;;
2021/11/07 06:41:11;;;;;;;7.5;4;;;;;;;-1.32;84.5293;943.3739;;;;
2021/11/07 06:43:37;;;;;;;51.8;27.9;;;;;;;-1.16;84.21582;943.4073;;;;
2021/11/07 06:46:03;;;;;;;7.3;3.8;;;;;;;-1.2;84.23047;943.387;;;;
2021/11/07 06:48:29;;;;;;;7.4;3.2;;;;;;;-1.11;84.11523;943.4331;;;;
2021/11/07 06:50:54;;;;;;;8.7;3.7;;;;;;;-0.88;84.27148;943.4057;;;;
2021/11/07 06:53:19;;;;;;;3.8;2.5;;;;;;;-0.4;82.53125;943.3663;;;;
2021/11/07 06:55:46;;;;;;;6.6;2.3;;;;;;;0.42;79.31348;943.4012;;;;
2021/11/07 06:58:11;;;;;;;4.4;2.6;;;;;;;0.82;77.08887;943.4147;;;;
2021/11/07 07:00:39;;;;;;;3.3;2.5;;;;;;;0.72;75.74512;943.4431;;;;
2021/11/07 07:03:04;;;;;;;4.5;2.8;;;;;;;1.2;74.91406;943.4414;;;;
2021/11/07 07:05:31;;;;;;;5.4;3.8;;;;;;;1.09;74.41309;943.4061;;;;
2021/11/07 07:07:58;;;;;;;11.6;6.2;;;;;;;1.53;73.83203;943.3283;;;;
2021/11/07 07:10:24;;;;;;;12.8;6;;;;;;;1.19;73.3252;943.2374;;;;
2021/11/07 07:12:50;;;;;;;7;4.3;;;;;;;0.96;74.45801;943.1113;;;;
2021/11/07 07:15:14;;;;;;;10.3;4.6;;;;;;;1.26;74.05273;943.0293;;;;
2021/11/07 07:17:42;;;;;;;10.6;5.6;;;;;;;1.6;72.71484;942.9128;;;;
2021/11/07 07:20:19;;;;;;;10.4;5.3;;;;;;;1.83;71.42383;942.8152;;;;
2021/11/07 07:27:26;;;;;;;3;1.8;;;;;;;2.57;67.23242;942.6161;;;;
2021/11/07 07:30:10;;;;;;;3.6;2.9;;;;;;;2.91;66.23242;942.6077;;;;
2021/11/07 07:32:27;;;;;;;4.1;3;;;;;;;3.3;64.62012;942.5049;;;;
2021/11/07 07:34:32;;;;;;;4.3;2.7;;;;;;;3.34;64.77148;942.5265;;;;
2021/11/07 07:36:57;;;;;;;3.7;2.8;;;;;;;3.6;63.87988;942.4722;;;;
2021/11/07 07:39:23;;;;;;;3.2;2.2;;;;;;;3.91;62.95996;942.5042;;;;
2021/11/07 07:41:48;;;;;;;4;2.2;;;;;;;4.48;60.64551;942.5411;;;;
2021/11/07 07:44:14;;;;;;;3.5;2.2;;;;;;;4.62;59.74121;942.4411;;;;
2021/11/07 07:46:40;;;;;;;4.9;4;;;;;;;5.21;59.31641;942.4196;;;;
2021/11/07 07:49:05;;;;;;;6.3;4.6;;;;;;;7.71;52.98242;942.3727;;;;
2021/11/07 07:51:31;;;;;;;5.3;3.6;;;;;;;9.82;47.76074;942.3121;;;;
2021/11/07 07:53:55;;;;;;;4.9;4;;;;;;;10.56;43.22949;942.2964;;;;
2021/11/07 07:56:22;;;;;;;3.4;2.6;;;;;;;9.39;45.17285;942.3481;;;;
2021/11/07 07:58:47;;;;;;;3.6;2.9;;;;;;;7.73;48.98145;942.3813;;;;
2021/11/07 08:01:14;;;;;;;4.8;2.4;;;;;;;7.13;50.56543;942.3716;;;;
2021/11/07 08:03:39;;;;;;;2.8;1.7;;;;;;;8.29;48.80664;942.245;;;;
2021/11/07 08:06:05;;;;;;;3.2;2.1;;;;;;;12.33;40.43652;942.1682;;;;
2021/11/07 08:08:30;;;;;;;3.3;2;;;;;;;13.69;37.34375;942.1478;;;;
2021/11/07 08:10:56;;;;;;;2.2;1.6;;;;;;;13.22;37.34961;942.1019;;;;
2021/11/07 08:13:21;;;;;;;3.4;1.9;;;;;;;13.43;35.38965;942.1144;;;;
2021/11/07 08:15:47;;;;;;;3.3;2.1;;;;;;;14.24;34.73047;942.2014;;;;
2021/11/07 08:18:12;;;;;;;2.9;2.6;;;;;;;11.72;39.18848;942.2222;;;;
2021/11/07 08:20:38;;;;;;;3.5;2.6;;;;;;;12.58;37.56934;942.1353;;;;
2021/11/07 08:26:35;;;;;;;3.1;1.2;;;;;;;12.47;36.11523;942.1409;;;;
2021/11/07 08:29:16;;;;;;;2.9;1;;;;;;;11.11;38.81445;942.0862;;;;
2021/11/07 08:31:41;;;;;;;4.1;1.1;;;;;;;11.57;38.49023;942.0472;;;;
2021/11/07 09:01:32;;;;;;;0.5;0.4;;;;;;;6.13;52.4375;941.8535;;;;
2021/11/07 09:03:56;;;;;;;2.6;0.8;;;;;;;5.95;51.07129;941.7914;;;;
2021/11/07 09:06:41;;;;;;;1.2;0.7;;;;;;;5.81;52.24023;941.7201;;;;
2021/11/07 09:08:43;;;;;;;1.1;0.7;;;;;;;5.66;52.08594;941.594;;;;
2021/11/07 09:11:10;;;;;;;0.8;0.6;;;;;;;5.23;51.61621;941.5496;;;;
2021/11/07 09:13:33;;;;;;;1;0.8;;;;;;;5.36;52.5918;941.5644;;;;
2021/11/07 09:16:00;;;;;;;2;0.9;;;;;;;5.36;52.56934;941.4799;;;;
2021/11/07 09:18:26;;;;;;;1.1;0.7;;;;;;;5.32;52.2041;941.4959;;;;
2021/11/07 09:20:59;;;;;;;0.6;0.5;;;;;;;5.5;51.50391;941.3784;;;;
2021/11/07 09:23:19;;;;;;;0.9;0.7;;;;;;;5.62;51.73242;941.4172;;;;
2021/11/07 09:25:44;;;;;;;0.6;0.5;;;;;;;5.85;52.4707;941.3752;;;;
2021/11/07 09:28:10;;;;;;;0.9;0.7;;;;;;;5.9;49.02148;941.3496;;;;
2021/11/07 09:30:39;;;;;;;0.6;0.6;;;;;;;6.02;53.20508;941.2667;;;;
2021/11/07 09:33:06;;;;;;;0.6;0.6;;;;;;;6.25;51.11914;941.2155;;;;
2021/11/07 09:35:43;;;;;;;1.1;1;;;;;;;6.42;48.59375;941.2872;;;;
2021/11/07 09:37:54;;;;;;;1.9;1.7;;;;;;;6.59;48.04785;941.2844;;;;
2021/11/07 09:40:18;;;;;;;1.6;1.3;;;;;;;6.63;44.66895;941.2208;;;;
2021/11/07 09:42:58;;;;;;;2.3;1.1;;;;;;;6.8;45.88672;941.1292;;;;
2021/11/07 09:45:15;;;;;;;1.9;1.3;;;;;;;7.11;44.78809;941.1019;;;;
2021/11/07 09:47:38;;;;;;;10.9;2.7;;;;;;;7.21;44.19727;941.0645;;;;
2021/11/07 09:50:03;;;;;;;6.5;2.1;;;;;;;7.39;44.02246;941.1339;;;;
2021/11/07 09:52:34;;;;;;;2.9;1.6;;;;;;;7.52;42.85742;941.151;;;;
2021/11/07 09:54:58;;;;;;;2.4;1.4;;;;;;;7.56;41.88672;941.2275;;;;
2021/11/07 09:57:21;;;;;;;1.3;0.9;;;;;;;7.51;42.07422;941.2089;;;;
2021/11/07 09:59:43;;;;;;;4.1;1.2;;;;;;;7.71;41.73047;941.1863;;;;
2021/11/07 10:02:09;;;;;;;1.3;0.9;;;;;;;8.4;39.91211;941.0917;;;;
2021/11/07 10:04:36;;;;;;;1.1;0.9;;;;;;;9.02;38.93359;940.9508;;;;
2021/11/07 10:07:01;;;;;;;1.5;1.1;;;;;;;9.48;38.8623;940.9314;;;;
2021/11/07 10:09:53;;;;;;;2.2;1.2;;;;;;;9.72;39.40723;940.8658;;;;
2021/11/07 10:12:50;;;;;;;1.4;1.3;;;;;;;10.04;39.08398;940.7594;;;;
2021/11/07 10:15:13;;;;;;;1;0.8;;;;;;;9.59;40.20508;940.7035;;;;
2021/11/07 10:17:40;;;;;;;1.6;0.7;;;;;;;9.27;41.21094;940.7088;;;;
2021/11/07 10:20:09;;;;;;;2.1;1.3;;;;;;;9.2;41.04395;940.6102;;;;
2021/11/07 10:22:33;;;;;;;2.3;1.1;;;;;;;9.25;40.22949;940.6131;;;;
2021/11/07 10:24:56;;;;;;;1.3;1.1;;;;;;;9.17;40.91602;940.6138;;;;
2021/11/07 10:27:20;;;;;;;2.5;1.2;;;;;;;9.11;42.61719;940.5935;;;;
2021/11/07 10:29:49;;;;;;;3.2;1.7;;;;;;;9.03;42.56348;940.538;;;;
2021/11/07 10:32:14;;;;;;;2.2;1.5;;;;;;;8.63;41.44434;940.5828;;;;
2021/11/07 10:39:46;;;;;;;1.3;1.2;;;;;;;8.94;40.80371;940.3939;;;;
2021/11/07 10:42:26;;;;;;;3.4;2.1;;;;;;;9.24;40.82031;940.3753;;;;
2021/11/07 10:44:33;;;;;;;1.3;1.2;;;;;;;9.45;39.38281;940.3823;;;;
2021/11/07 10:47:13;;;;;;;2.4;1.8;;;;;;;9.58;37.36621;940.2955;;;;
2021/11/07 10:54:03;;;;;;;2.7;1.7;;;;;;;9.44;38.01563;940.259;;;;
2021/11/07 10:56:32;;;;;;;1.6;1.2;;;;;;;9.94;38.03711;940.161;;;;
2021/11/07 10:58:59;;;;;;;1.9;1.2;;;;;;;10.47;38.54102;940.1145;;;;
2021/11/07 11:01:25;;;;;;;3.5;1.8;;;;;;;10.77;37.30957;940.0411;;;;
2021/11/07 11:03:54;;;;;;;1.6;1.1;;;;;;;10.68;36.03516;940.1022;;;;
2021/11/07 11:06:17;;;;;;;1;0.9;;;;;;;10.7;36.43555;940.0538;;;;
2021/11/07 11:08:44;;;;;;;1.6;0.9;;;;;;;10.86;35.52441;940.0034;;;;
2021/11/07 11:11:10;;;;;;;0.6;0.6;;;;;;;11.24;35.30371;940.0517;;;;
2021/11/07 11:14:16;;;;;;;0.7;0.6;;;;;;;11.26;35.01855;940.1188;;;;
2021/11/07 11:16:50;;;;;;;1;0.6;;;;;;;11.4;35.5791;940.0834;;;;
2021/11/07 11:21:03;;;;;;;1.3;1;;;;;;;11.59;35.96094;940.1292;;;;
2021/11/07 11:23:22;;;;;;;1.1;0.7;;;;;;;11.85;36.09766;940.0644;;;;
2021/11/07 11:25:45;;;;;;;1.7;1;;;;;;;12.1;35.55664;940.0287;;;;
2021/11/07 11:28:33;;;;;;;1.2;0.8;;;;;;;11.98;35.00879;939.9775;;;;
2021/11/07 11:30:42;;;;;;;1.2;0.9;;;;;;;12.6;34.18555;939.8251;;;;
2021/11/07 11:32:59;;;;;;;2.1;1;;;;;;;13.55;31.62891;939.8596;;;;
2021/11/07 11:35:26;;;;;;;1.7;0.8;;;;;;;13.59;31.05664;939.7851;;;;
2021/11/07 11:37:55;;;;;;;1.2;0.6;;;;;;;14.25;30.27441;939.7832;;;;
2021/11/07 11:40:16;;;;;;;0.8;0.6;;;;;;;17.39;26.66504;939.673;;;;
2021/11/07 11:42:42;;;;;;;0.6;0.6;;;;;;;20.24;23.3125;939.6672;;;;
2021/11/07 11:45:02;;;;;;;1.8;0.7;;;;;;;22.59;20.41992;939.6955;;;;
2021/11/07 11:47:35;;;;;;;0.5;0.5;;;;;;;23.47;19.1084;939.6878;;;;
2021/11/07 11:50:04;;;;;;;1.2;0.5;;;;;;;24.88;18.38965;939.5027;;;;
2021/11/07 11:52:27;;;;;;;1.1;0.6;;;;;;;27.09;17.17676;939.4481;;;;
2021/11/07 11:57:11;;;;;;;1.3;0.7;;;;;;;30.19;14.41895;939.2736;;;;
2021/11/07 11:59:37;;;;;;;0.7;0.6;;;;;;;30.2;13.87012;939.2456;;;;
2021/11/07 12:01:58;;;;;;;0.6;0.6;;;;;;;29.85;13.7041;939.1003;;;;
2021/11/07 12:04:31;;;;;;;1.3;1.1;;;;;;;26.89;15.72363;938.9465;;;;
2021/11/07 12:06:51;;;;;;;1.4;0.6;;;;;;;25.16;17.77539;938.877;;;;
2021/11/07 12:09:19;;;;;;;0.4;0.3;;;;;;;23.89;17.16113;938.8467;;;;
2021/11/07 12:11:42;;;;;;;0.8;0.3;;;;;;;24.18;16.59473;938.8661;;;;
2021/11/07 12:14:13;;;;;;;0.5;0.3;;;;;;;25.93;15.7373;938.8784;;;;
2021/11/07 12:16:29;;;;;;;0.4;0.4;;;;;;;27.45;16.16992;938.7465;;;;
2021/11/07 12:18:54;;;;;;;0.7;0.5;;;;;;;26.6;15.41797;938.7371;;;;
2021/11/07 12:21:23;;;;;;;1;0.6;;;;;;;26.27;15.77344;938.7347;;;;
2021/11/07 12:23:44;;;;;;;0.5;0.4;;;;;;;24.78;16.55762;938.7547;;;;
2021/11/07 12:26:10;;;;;;;1.5;0.6;;;;;;;27.27;17.2666;938.7759;;;;
2021/11/07 12:28:35;;;;;;;1;0.6;;;;;;;28.72;15.02637;938.705;;;;
2021/11/07 12:31:00;;;;;;;0.9;0.4;;;;;;;29.03;14.53711;938.6702;;;;
2021/11/07 12:33:26;;;;;;;0.6;0.6;;;;;;;27.37;15.61035;938.68;;;;
2021/11/07 12:35:56;;;;;;;1;0.5;;;;;;;29.81;15.73047;938.6251;;;;
2021/11/07 12:40:41;;;;;;;0.6;0.5;;;;;;;29.08;14.97852;938.6091;;;;
2021/11/07 12:43:06;;;;;;;0.6;0.4;;;;;;;28.57;14.92578;938.5586;;;;
2021/11/07 12:45:32;;;;;;;0.3;0.3;;;;;;;31.05;14.50586;938.5779;;;;
2021/11/07 12:48:01;;;;;;;0.9;0.5;;;;;;;32.4;12.8457;938.6247;;;;
2021/11/07 12:50:21;;;;;;;1.7;0.7;;;;;;;32.52;13.42578;938.5945;;;;
2021/11/07 12:52:46;;;;;;;1.1;0.8;;;;;;;33.39;12.64551;938.6447;;;;
2021/11/07 12:55:12;;;;;;;0.7;0.7;;;;;;;33.99;12.45801;938.6404;;;;
2021/11/07 12:57:37;;;;;;;0.4;0.4;;;;;;;31.07;13.94434;938.611;;;;
2021/11/07 13:00:06;;;;;;;2;0.6;;;;;;;30.84;14.59473;938.6362;;;;
2021/11/07 13:02:46;;;;;;;0.6;0.6;;;;;;;30.06;15.47656;938.6245;;;;
2021/11/07 13:05:15;;;;;;;0.6;0.6;;;;;;;29.76;15.55078;938.6252;;;;
2021/11/07 13:07:41;;;;;;;0.7;0.5;;;;;;;30.25;15.18457;938.5639;;;;
2021/11/07 13:10:03;;;;;;;0.6;0.5;;;;;;;30.51;15.62402;938.533;;;;
2021/11/07 13:12:29;;;;;;;0.7;0.7;;;;;;;30.54;15.68457;938.4675;;;;
2021/11/07 13:15:06;;;;;;;0.8;0.5;;;;;;;30;16.33398;938.4606;;;;
2021/11/07 13:17:35;;;;;;;0.5;0.5;;;;;;;29.54;16.47266;938.3815;;;;
2021/11/07 13:19:56;;;;;;;0.5;0.4;;;;;;;28.29;17.61523;938.3381;;;;
2021/11/07 13:22:26;;;;;;;0.5;0.5;;;;;;;27.81;18.07129;938.3251;;;;
2021/11/07 13:24:55;;;;;;;0.9;0.6;;;;;;;26.58;19.53809;938.3463;;;;
2021/11/07 13:27:08;;;;;;;1.1;0.5;;;;;;;27.59;18.14551;938.3262;;;;
2021/11/07 13:29:34;;;;;;;0.8;0.7;;;;;;;26.98;19.21191;938.3088;;;;
2021/11/07 13:31:58;;;;;;;0.9;0.6;;;;;;;26.9;19.16113;938.2144;;;;
2021/11/07 13:34:18;;;;;;;0.6;0.5;;;;;;;27.93;18.45605;938.2548;;;;
2021/11/07 13:36:42;;;;;;;2;1.2;;;;;;;28.58;17.94824;938.257;;;;
2021/11/07 13:39:06;;;;;;;0.6;0.6;;;;;;;28.58;17.66211;938.3197;;;;
2021/11/07 13:41:33;;;;;;;1;0.7;;;;;;;28.65;17.66504;938.2737;;;;
2021/11/07 13:43:56;;;;;;;0.5;0.5;;;;;;;28.97;17.41504;938.3345;;;;
2021/11/07 13:46:21;;;;;;;0.6;0.6;;;;;;;26.02;19.65527;938.3484;;;;
2021/11/07 13:48:46;;;;;;;0.5;0.5;;;;;;;25.72;20.28027;938.3336;;;;
2021/11/07 13:51:12;;;;;;;0.5;0.5;;;;;;;26.21;19.42676;938.3431;;;;
2021/11/07 13:53:37;;;;;;;0.6;0.6;;;;;;;26.08;19.55176;938.3701;;;;
2021/11/07 13:56:02;;;;;;;0.9;0.7;;;;;;;24.64;20.59668;938.3105;;;;
2021/11/07 13:58:27;;;;;;;0.7;0.7;;;;;;;24.48;20.69531;938.351;;;;
2021/11/07 14:00:52;;;;;;;0.6;0.6;;;;;;;23.59;21.4541;938.3554;;;;
2021/11/07 14:03:17;;;;;;;0.6;0.6;;;;;;;22.26;22.9502;938.4342;;;;
2021/11/07 14:05:43;;;;;;;0.9;0.6;;;;;;;22.16;23.44922;938.4674;;;;
2021/11/07 14:08:10;;;;;;;1.5;0.8;;;;;;;21.92;23.4834;938.4495;;;;
2021/11/07 14:10:37;;;;;;;0.7;0.6;;;;;;;18.79;27.0752;938.5222;;;;
2021/11/07 14:13:01;;;;;;;0.8;0.7;;;;;;;19.23;26.77637;938.467;;;;
2021/11/07 14:15:35;;;;;;;2;0.6;;;;;;;19.37;26.54102;938.4395;;;;
2021/11/07 14:18:00;;;;;;;1.7;0.8;;;;;;;18.52;27.07031;938.5402;;;;
2021/11/07 14:20:25;;;;;;;1.6;0.9;;;;;;;18.87;27.58105;938.5368;;;;
2021/11/07 14:22:51;;;;;;;1.2;1;;;;;;;18.64;27.33398;938.5187;;;;
2021/11/07 14:25:18;;;;;;;3.4;1.1;;;;;;;18.35;28.0127;938.528;;;;
2021/11/07 14:27:48;;;;;;;1.5;1.1;;;;;;;17.31;29.08301;938.5103;;;;
2021/11/07 14:30:10;;;;;;;1.5;1;;;;;;;17.42;28.77734;938.4476;;;;
2021/11/07 14:32:34;;;;;;;1.3;0.7;;;;;;;17.37;28.19434;938.5054;;;;
2021/11/07 14:35:00;;;;;;;1.1;0.7;;;;;;;17.51;28.21582;938.4992;;;;
2021/11/07 14:37:25;;;;;;;1;0.9;;;;;;;16.9;29.72852;938.4861;;;;
2021/11/07 14:39:50;;;;;;;2.9;1.4;;;;;;;17.16;29.79199;938.4714;;;;
2021/11/07 14:42:33;;;;;;;1.7;1.1;;;;;;;16.4;29.83398;938.4789;;;;
2021/11/07 14:44:43;;;;;;;0.8;0.7;;;;;;;15.94;31.24707;938.5167;;;;
2021/11/07 14:47:04;;;;;;;3.1;0.9;;;;;;;15.5;32.35938;938.4889;;;;
2021/11/07 14:49:38;;;;;;;0.7;0.7;;;;;;;14.89;32.91309;938.5233;;;;
2021/11/07 14:52:08;;;;;;;1.4;0.8;;;;;;;14.42;34.04199;938.5284;;;;
2021/11/07 14:54:25;;;;;;;1.5;0.7;;;;;;;14.06;34.60156;938.4997;;;;
2021/11/07 14:56:51;;;;;;;0.9;0.7;;;;;;;13.77;35.12988;938.4713;;;;
2021/11/07 14:59:16;;;;;;;0.8;0.6;;;;;;;13.44;35.31055;938.4796;;;;
2021/11/07 15:01:39;;;;;;;4.7;1.1;;;;;;;13.05;37.21875;938.4117;;;;
2021/11/07 15:04:06;;;;;;;2;1.5;;;;;;;12.71;39.39355;938.3342;;;;
2021/11/07 15:06:41;;;;;;;4.5;2.5;;;;;;;12.45;41.11328;938.3303;;;;
2021/11/07 15:08:54;;;;;;;4.9;3.4;;;;;;;11.95;42.8418;938.4211;;;;
2021/11/07 15:11:32;;;;;;;5.2;4.1;;;;;;;11.71;43.6875;938.5311;;;;
2021/11/07 15:13:49;;;;;;;8.1;5.5;;;;;;;11.41;44.80273;938.5156;;;;
2021/11/07 15:16:14;;;;;;;6.1;4.2;;;;;;;11.25;45.6084;938.4966;;;;
2021/11/07 15:18:42;;;;;;;2.9;2.2;;;;;;;10.72;48.29297;938.509;;;;
2021/11/07 15:21:05;;;;;;;2.5;2.2;;;;;;;10.31;48.22559;938.498;;;;
2021/11/07 15:23:21;;;;;;;3.3;2.3;;;;;;;10.02;49.25391;938.5371;;;;
2021/11/07 15:25:47;;;;;;;4.9;2.3;;;;;;;9.97;49.4082;938.5045;;;;
2021/11/07 15:28:15;;;;;;;3.7;2;;;;;;;9.94;49.47266;938.5319;;;;
2021/11/07 15:30:37;;;;;;;5.1;2.1;;;;;;;9.81;50.10742;938.5192;;;;
2021/11/07 15:33:02;;;;;;;3.3;2.1;;;;;;;9.59;53.2041;938.5507;;;;
2021/11/07 15:35:29;;;;;;;4.1;2.3;;;;;;;9.49;53.58887;938.5566;;;;
2021/11/07 15:37:52;;;;;;;3.6;2.5;;;;;;;9.42;52.4541;938.5556;;;;
2021/11/07 15:40:18;;;;;;;4.4;3;;;;;;;9.26;51.8877;938.5555;;;;
2021/11/07 15:42:47;;;;;;;13.1;6.6;;;;;;;9.15;54.93652;938.5471;;;;
2021/11/07 15:45:14;;;;;;;7.3;3.3;;;;;;;9;56.04297;938.5438;;;;
2021/11/07 15:47:41;;;;;;;4.8;2.9;;;;;;;8.72;56.72461;938.6548;;;;
2021/11/07 15:50:09;;;;;;;5.8;3.2;;;;;;;8.46;57.21191;938.6786;;;;
2021/11/07 15:52:34;;;;;;;2.8;2.2;;;;;;;8.51;57.52539;938.7287;;;;
2021/11/07 15:54:57;;;;;;;8.8;5.9;;;;;;;8.41;58.1709;938.7571;;;;
2021/11/07 15:57:28;;;;;;;10.4;6.7;;;;;;;8.27;58.60547;938.7436;;;;
2021/11/07 15:59:53;;;;;;;10.7;3.3;;;;;;;8.08;58.83008;938.7952;;;;
2021/11/07 16:02:13;;;;;;;6.9;4.3;;;;;;;7.99;58.95313;938.7972;;;;
2021/11/07 16:05:01;;;;;;;4.3;2.8;;;;;;;8.08;57.07031;938.7944;;;;
2021/11/07 16:07:03;;;;;;;3.8;2.4;;;;;;;8.04;54.14746;938.8278;;;;
2021/11/07 16:09:40;;;;;;;6.1;2.6;;;;;;;8.02;56.87012;938.7798;;;;
2021/11/07 16:11:51;;;;;;;4.1;2.5;;;;;;;8;58.49023;938.8742;;;;
2021/11/07 16:14:23;;;;;;;8.9;3.8;;;;;;;7.96;58.6543;938.9266;;;;
2021/11/07 16:16:58;;;;;;;6.9;3.7;;;;;;;7.75;58.9668;938.8878;;;;
2021/11/07 16:19:08;;;;;;;25.9;13.3;;;;;;;7.51;57.4707;938.8722;;;;
2021/11/07 16:21:30;;;;;;;15.4;8.7;;;;;;;7.19;57.14551;938.7877;;;;
2021/11/07 16:23:53;;;;;;;11.3;7.4;;;;;;;7.19;58.15332;938.8455;;;;
2021/11/07 16:26:18;;;;;;;12.6;7;;;;;;;7.11;57.8916;938.8506;;;;
2021/11/07 16:28:44;;;;;;;10.7;5.9;;;;;;;7.15;57.95508;938.8533;;;;
2021/11/07 16:31:13;;;;;;;10.7;6.7;;;;;;;7.26;58.62793;938.8705;;;;
2021/11/07 16:33:55;;;;;;;9.9;6.2;;;;;;;7.2;58.50586;938.9052;;;;
2021/11/07 16:36:24;;;;;;;9.3;5.9;;;;;;;7.1;59.47754;939.0811;;;;